グアテマラシティ の空港の天気 - METARとTAF

ラ・アウロラ国際空港 ( MGGT / GUA ) - グアテマラ グアテマラシティ
飛行場実況気象(Metar)
観測時間12/03 07:00 CST (12/03 13:00 UTC)
風向・風速北 4m/s
視程10km以上
天気現象
全天の8割程度の雲 雲底高度 370m
気温16℃
湿度88%
気圧1025hPa
METARMGGT 031300Z 36008KT 9999 BKN012 16/14 Q1025 A3027
過去の天気等 Google飛行場航空写真 Wunderground天気予報

過去48時間のMETAR

飛行場予報(TAF)
発表時間: 12/03 05:00 CST (12/03 11:00 UTC)
予報対象時間: 3日6時 CST ~ 4日6時 CST
風向・風速北 5m/s
視程10km以上
全天の8割程度の雲 雲底高度 m
3日9時 CST ~ 3日11時 CST に徐々に
風向・風速北 8m/s
全天の4割程度の雲 雲底高度 550m
3日14時 CST ~ 3日18時 CST に一時的に
全天の4割程度の塔状積雲 雲底高度 610m
3日20時 CST ~ 3日22時 CST に徐々に
風向・風速北 5m/s
全天の8割程度の雲 雲底高度 490m
4日0時 CST ~ 4日2時 CST に徐々に
全天の4割程度の雲 雲底高度 430m
MGGT 031100Z 0312/0412 36010KT 9999 BKN14 TX24/0320Z TN14/0312Z
BECMG 0315/0317 36016KT SCT018
TEMPO 0320/0324 SCT020TCU
BECMG 0402/0404 36010KT BKN016
BECMG 0406/0408 SCT014